createdAt,value
2023-02-18T00:00:33.533Z,12.07
2023-02-18T00:03:00.781Z,8.43
2023-02-18T00:05:29.712Z,10.10
2023-02-18T00:07:57.118Z,9.32
2023-02-18T00:10:24.329Z,8.70
2023-02-18T00:12:51.637Z,7.32
2023-02-18T00:15:18.883Z,9.15
2023-02-18T00:17:46.176Z,10.95
2023-02-18T00:20:13.624Z,8.60
2023-02-18T00:22:40.956Z,10.00
2023-02-18T00:25:08.432Z,9.68
2023-02-18T00:27:35.704Z,8.60
2023-02-18T00:30:04.770Z,10.00
2023-02-18T00:32:35.538Z,9.52
2023-02-18T00:35:04.159Z,7.45
2023-02-18T00:37:32.442Z,7.50
2023-02-18T00:40:01.703Z,8.73
2023-02-18T00:42:30.793Z,9.20
2023-02-18T00:44:58.123Z,8.75
2023-02-18T00:47:25.423Z,7.75
2023-02-18T00:49:52.681Z,6.95
2023-02-18T00:52:20.112Z,11.68
2023-02-18T00:54:47.507Z,10.70
2023-02-18T00:57:14.786Z,6.32
2023-02-18T00:59:42.058Z,10.73
2023-02-18T01:02:09.291Z,5.40
2023-02-18T01:04:36.567Z,7.43
2023-02-18T01:07:03.828Z,4.95
2023-02-18T01:09:31.076Z,6.70
2023-02-18T01:11:58.389Z,9.32
2023-02-18T01:14:25.670Z,6.47
2023-02-18T01:16:53.000Z,7.00
2023-02-18T01:19:20.216Z,5.57
2023-02-18T01:21:47.513Z,6.78
2023-02-18T01:24:15.432Z,6.53
2023-02-18T01:26:43.089Z,5.57
2023-02-18T01:29:10.287Z,6.03
2023-02-18T01:31:37.705Z,6.00
2023-02-18T01:34:05.096Z,6.47
2023-02-18T01:36:32.315Z,5.32
2023-02-18T01:39:00.481Z,6.20
2023-02-18T01:41:28.001Z,8.02
2023-02-18T01:44:11.737Z,5.45
2023-02-18T01:46:39.153Z,7.32
2023-02-18T01:49:07.630Z,5.68
2023-02-18T01:51:39.407Z,10.00
2023-02-18T01:54:14.921Z,5.10
2023-02-18T01:56:59.158Z,8.43
2023-02-18T01:59:31.739Z,5.13
2023-02-18T02:01:59.562Z,5.97
2023-02-18T02:04:30.413Z,7.57
2023-02-18T02:06:57.874Z,5.47
2023-02-18T02:09:27.252Z,6.63
2023-02-18T02:12:20.208Z,6.47
2023-02-18T02:14:47.878Z,5.18
2023-02-18T02:17:32.864Z,7.30
2023-02-18T02:20:15.582Z,6.55
2023-02-18T02:23:00.891Z,7.47
2023-02-18T02:25:59.437Z,5.90
2023-02-18T02:28:54.522Z,7.40
2023-02-18T02:31:46.241Z,5.78
2023-02-18T02:34:29.205Z,6.15
2023-02-18T02:37:14.595Z,6.15
2023-02-18T02:39:56.611Z,8.95
2023-02-18T02:42:46.533Z,5.65
2023-02-18T02:45:28.402Z,7.28
2023-02-18T02:48:08.682Z,6.70
2023-02-18T02:50:43.897Z,6.85
2023-02-18T02:53:17.545Z,6.30
2023-02-18T02:55:44.975Z,6.53
2023-02-18T02:58:16.843Z,5.03
2023-02-18T03:00:47.098Z,5.28
2023-02-18T03:03:47.610Z,5.88
2023-02-18T03:06:24.657Z,5.93
2023-02-18T03:09:07.182Z,5.70
2023-02-18T03:11:47.353Z,6.00
2023-02-18T03:14:47.802Z,5.80
2023-02-18T03:17:46.316Z,4.40
2023-02-18T03:20:27.677Z,3.55
2023-02-18T03:22:59.778Z,4.55
2023-02-18T03:25:29.565Z,3.60
2023-02-18T03:28:02.303Z,3.63
2023-02-18T03:30:33.741Z,3.25
2023-02-18T03:33:07.523Z,3.13
2023-02-18T03:35:36.997Z,2.28
2023-02-18T03:38:30.124Z,2.28
2023-02-18T03:40:58.066Z,3.67
2023-02-18T03:43:25.392Z,3.15
2023-02-18T03:45:54.298Z,3.25
2023-02-18T03:48:22.078Z,2.88
2023-02-18T03:50:52.781Z,1.88
2023-02-18T03:53:20.138Z,2.00
2023-02-18T03:55:47.475Z,3.85
2023-02-18T03:58:14.717Z,1.90
2023-02-18T04:00:42.008Z,3.42
2023-02-18T04:03:09.349Z,3.63
2023-02-18T04:05:36.606Z,1.30
2023-02-18T04:08:04.043Z,1.33
2023-02-18T04:10:31.415Z,1.63
2023-02-18T04:12:58.704Z,1.63
2023-02-18T04:15:26.016Z,1.63
2023-02-18T04:17:53.274Z,1.25
2023-02-18T04:20:20.678Z,1.45
2023-02-18T04:22:48.214Z,2.00
2023-02-18T04:25:15.557Z,1.15
2023-02-18T04:27:42.784Z,0.77
2023-02-18T04:30:10.827Z,0.85
2023-02-18T04:32:38.514Z,0.75
2023-02-18T04:35:06.451Z,0.80
2023-02-18T04:37:33.891Z,1.25
2023-02-18T04:40:01.152Z,1.38
2023-02-18T04:42:29.247Z,1.52
2023-02-18T04:44:56.475Z,1.63
2023-02-18T04:47:24.320Z,0.38
2023-02-18T04:49:51.601Z,0.30
2023-02-18T04:52:19.218Z,2.42
2023-02-18T04:54:46.616Z,1.77
2023-02-18T04:57:13.835Z,1.05
2023-02-18T04:59:41.267Z,0.55
2023-02-18T05:02:08.609Z,1.00
2023-02-18T05:04:35.898Z,2.15
2023-02-18T05:07:06.568Z,0.90
2023-02-18T05:09:33.885Z,0.70
2023-02-18T05:12:01.066Z,0.68
2023-02-18T05:14:28.246Z,1.65
2023-02-18T05:16:55.700Z,1.45
2023-02-18T05:19:23.266Z,2.58
2023-02-18T05:21:50.539Z,1.52
2023-02-18T05:24:17.865Z,1.40
2023-02-18T05:26:45.137Z,1.80
2023-02-18T05:29:12.542Z,2.28
2023-02-18T05:31:40.106Z,5.47
2023-02-18T05:34:07.618Z,1.90
2023-02-18T05:36:34.976Z,2.33
2023-02-18T05:39:02.354Z,3.25
2023-02-18T05:41:29.655Z,1.77
2023-02-18T05:44:15.324Z,3.05
2023-02-18T05:46:42.597Z,2.65
2023-02-18T05:49:09.934Z,1.63
2023-02-18T05:51:37.156Z,1.73
2023-02-18T05:54:04.665Z,1.42
2023-02-18T05:56:31.996Z,0.85
2023-02-18T05:58:59.332Z,2.33
2023-02-18T06:01:26.639Z,1.38
2023-02-18T06:03:53.949Z,1.48
2023-02-18T06:06:21.465Z,0.88
2023-02-18T06:08:48.908Z,2.15
2023-02-18T06:11:16.238Z,0.95
2023-02-18T06:13:43.531Z,2.05
2023-02-18T06:16:11.262Z,1.35
2023-02-18T06:18:38.763Z,1.13
2023-02-18T06:21:06.424Z,2.67
2023-02-18T06:23:33.871Z,1.35
2023-02-18T06:26:01.334Z,0.95
2023-02-18T06:28:28.832Z,0.90
2023-02-18T06:30:56.367Z,0.82
2023-02-18T06:33:23.743Z,0.80
2023-02-18T06:35:59.634Z,2.63
2023-02-18T06:38:28.711Z,0.70
2023-02-18T06:40:55.995Z,0.68
2023-02-18T06:43:23.405Z,0.57
2023-02-18T06:45:50.993Z,2.50
2023-02-18T06:48:18.307Z,0.47
2023-02-18T06:50:45.865Z,2.47
2023-02-18T06:53:13.336Z,0.30
2023-02-18T06:55:42.506Z,0.45
2023-02-18T06:58:11.697Z,1.52
2023-02-18T07:00:39.154Z,1.13
2023-02-18T07:03:11.466Z,0.57
2023-02-18T07:06:04.069Z,0.63
2023-02-18T07:08:37.791Z,0.60
2023-02-18T07:11:05.451Z,0.38
2023-02-18T07:13:32.868Z,0.43
2023-02-18T07:16:00.236Z,0.52
2023-02-18T07:18:27.700Z,0.30
2023-02-18T07:20:55.057Z,0.30
2023-02-18T07:23:22.308Z,0.50
2023-02-18T07:25:49.607Z,0.55
2023-02-18T07:28:16.920Z,0.30
2023-02-18T07:30:44.306Z,0.50
2023-02-18T07:33:11.632Z,0.47
2023-02-18T07:35:39.442Z,2.03
2023-02-18T07:38:09.071Z,0.50
2023-02-18T07:40:36.469Z,0.75
2023-02-18T07:43:03.696Z,0.75
2023-02-18T07:45:30.956Z,0.80
2023-02-18T07:47:58.332Z,0.50
2023-02-18T07:50:28.780Z,0.95
2023-02-18T07:53:08.139Z,1.73
2023-02-18T07:55:52.161Z,0.82
2023-02-18T07:58:26.034Z,1.08
2023-02-18T08:00:54.691Z,0.50
2023-02-18T08:03:27.205Z,0.50
2023-02-18T08:05:55.517Z,1.48
2023-02-18T08:08:25.853Z,0.80
2023-02-18T08:10:55.464Z,0.73
2023-02-18T08:13:22.980Z,0.85
2023-02-18T08:15:50.497Z,3.13
2023-02-18T08:18:21.446Z,1.20
2023-02-18T08:20:50.427Z,1.55
2023-02-18T08:23:20.226Z,2.78
2023-02-18T08:25:50.297Z,3.38
2023-02-18T08:28:19.329Z,4.72
2023-02-18T08:30:51.859Z,4.10
2023-02-18T08:33:20.013Z,2.78
2023-02-18T08:35:49.162Z,4.25
2023-02-18T08:38:16.433Z,4.15
2023-02-18T08:40:43.933Z,3.35
2023-02-18T08:43:11.515Z,4.63
2023-02-18T08:45:39.959Z,2.33
2023-02-18T08:48:13.656Z,9.60
2023-02-18T08:50:46.265Z,4.35
2023-02-18T08:53:13.659Z,4.32
2023-02-18T08:55:41.438Z,9.25
2023-02-18T08:58:09.161Z,9.43
2023-02-18T09:00:37.160Z,5.72
2023-02-18T09:03:04.982Z,10.35
2023-02-18T09:05:32.385Z,9.82
2023-02-18T09:07:59.970Z,4.65
2023-02-18T09:10:27.241Z,7.22
2023-02-18T09:12:54.541Z,6.07
2023-02-18T09:15:21.832Z,8.98
2023-02-18T09:17:49.070Z,5.00
2023-02-18T09:20:16.486Z,6.85
2023-02-18T09:22:43.767Z,8.68
2023-02-18T09:25:11.011Z,6.05
2023-02-18T09:27:38.323Z,8.35
2023-02-18T09:30:07.126Z,5.13
2023-02-18T09:32:35.577Z,3.20
2023-02-18T09:35:05.450Z,5.28
2023-02-18T09:37:32.783Z,6.47
2023-02-18T09:40:00.143Z,21.65
2023-02-18T09:42:34.959Z,4.60
2023-02-18T09:45:07.168Z,5.15
2023-02-18T09:47:38.669Z,7.00
2023-02-18T09:50:08.878Z,7.93
2023-02-18T09:52:38.483Z,18.38
2023-02-18T09:55:21.027Z,8.20
2023-02-18T09:57:58.119Z,6.00
2023-02-18T10:00:32.097Z,8.85
2023-02-18T10:03:07.868Z,5.28
2023-02-18T10:05:37.207Z,6.97
2023-02-18T10:08:14.833Z,7.50
2023-02-18T10:10:44.899Z,8.30
2023-02-18T10:13:25.234Z,10.00
2023-02-18T10:15:53.322Z,7.35
2023-02-18T10:18:39.789Z,8.57
2023-02-18T10:21:17.995Z,9.95
2023-02-18T10:24:09.919Z,3.72
2023-02-18T10:26:39.123Z,6.53
2023-02-18T10:29:15.691Z,6.32
2023-02-18T10:31:54.416Z,14.60
2023-02-18T10:34:28.534Z,6.88
2023-02-18T10:37:15.743Z,7.53
2023-02-18T10:40:12.568Z,4.75
2023-02-18T10:43:09.582Z,3.75
2023-02-18T10:45:51.271Z,4.40
2023-02-18T10:48:18.845Z,5.15
2023-02-18T10:50:46.852Z,9.05
2023-02-18T10:53:34.753Z,8.75
2023-02-18T10:56:02.956Z,7.57
2023-02-18T10:58:47.485Z,10.45
2023-02-18T11:01:21.061Z,5.75
2023-02-18T11:03:51.238Z,13.13
2023-02-18T11:06:31.501Z,7.30
2023-02-18T11:09:00.000Z,7.72
2023-02-18T11:11:38.159Z,13.60
2023-02-18T11:14:08.123Z,4.80
2023-02-18T11:16:44.998Z,5.35
2023-02-18T11:19:38.472Z,7.10
2023-02-18T11:22:22.633Z,6.55
2023-02-18T11:24:55.835Z,5.72
2023-02-18T11:27:42.098Z,4.82
2023-02-18T11:30:35.648Z,6.32
2023-02-18T11:33:09.498Z,7.07
2023-02-18T11:35:38.164Z,5.78
2023-02-18T11:38:26.227Z,8.05
2023-02-18T11:41:03.208Z,3.05
2023-02-18T11:43:31.671Z,3.92
2023-02-18T11:46:20.859Z,3.15
2023-02-18T11:48:48.979Z,4.15
2023-02-18T11:51:33.106Z,3.72
2023-02-18T11:54:04.238Z,4.53
2023-02-18T11:56:36.429Z,2.78
2023-02-18T11:59:04.493Z,2.72
2023-02-18T12:01:46.189Z,3.88
2023-02-18T12:04:26.408Z,4.40
2023-02-18T12:07:15.750Z,2.50
2023-02-18T12:09:57.133Z,2.72
2023-02-18T12:12:36.350Z,2.78
2023-02-18T12:15:04.009Z,5.63
2023-02-18T12:17:45.594Z,5.78
2023-02-18T12:20:28.057Z,3.35
2023-02-18T12:23:10.954Z,3.47
2023-02-18T12:25:48.909Z,4.60
2023-02-18T12:28:43.747Z,4.50
2023-02-18T12:31:35.540Z,2.88
2023-02-18T12:34:12.157Z,2.22
2023-02-18T12:37:01.345Z,1.83
2023-02-18T12:40:06.438Z,3.78
2023-02-18T12:42:44.481Z,2.90
2023-02-18T12:45:30.893Z,4.00
2023-02-18T12:48:13.162Z,5.68
2023-02-18T12:50:48.799Z,6.18
2023-02-18T12:53:16.239Z,6.60
2023-02-18T12:55:58.796Z,4.38
2023-02-18T12:58:44.481Z,4.40
2023-02-18T13:01:25.221Z,2.25
2023-02-18T13:04:19.006Z,3.33
2023-02-18T13:07:17.392Z,2.47
2023-02-18T13:10:00.702Z,3.38
2023-02-18T13:12:39.882Z,3.30
2023-02-18T13:15:51.143Z,2.10
2023-02-18T13:18:42.249Z,3.25
2023-02-18T13:21:12.678Z,2.40
2023-02-18T13:23:43.463Z,2.15
2023-02-18T13:26:14.874Z,2.75
2023-02-18T13:29:02.412Z,2.40
2023-02-18T13:31:52.388Z,3.30
2023-02-18T13:34:22.546Z,4.55
2023-02-18T13:37:26.848Z,2.17
2023-02-18T13:39:57.053Z,2.53
2023-02-18T13:42:33.081Z,2.75
2023-02-18T13:45:00.345Z,2.10
2023-02-18T13:47:40.990Z,3.67
2023-02-18T13:50:25.548Z,5.57
2023-02-18T13:53:13.274Z,5.32
2023-02-18T13:55:55.774Z,3.58
2023-02-18T13:58:30.508Z,5.85
2023-02-18T14:01:06.906Z,4.45
2023-02-18T14:03:42.576Z,3.17
2023-02-18T14:06:23.398Z,3.25
2023-02-18T14:08:51.966Z,4.03
2023-02-18T14:11:22.708Z,1.92
2023-02-18T14:13:54.625Z,2.45
2023-02-18T14:16:22.542Z,1.98
2023-02-18T14:18:59.340Z,3.47
2023-02-18T14:21:39.171Z,2.35
2023-02-18T14:24:09.574Z,2.38
2023-02-18T14:26:44.818Z,1.73
2023-02-18T14:29:19.150Z,1.85
2023-02-18T14:31:50.751Z,2.17
2023-02-18T14:34:21.847Z,2.40
2023-02-18T14:37:06.393Z,4.72
2023-02-18T14:39:43.450Z,2.22
2023-02-18T14:42:16.702Z,2.33
2023-02-18T14:45:05.054Z,4.00
2023-02-18T14:47:50.906Z,3.97
2023-02-18T14:50:21.529Z,3.38
2023-02-18T14:52:53.380Z,2.45
2023-02-18T14:55:23.486Z,2.97
2023-02-18T14:58:27.680Z,2.88
2023-02-18T15:00:55.285Z,2.17
2023-02-18T15:03:22.811Z,2.65
2023-02-18T15:05:51.380Z,1.58
2023-02-18T15:08:22.115Z,5.03
2023-02-18T15:11:05.693Z,1.85
2023-02-18T15:13:36.780Z,3.28
2023-02-18T15:16:07.434Z,2.72
2023-02-18T15:18:38.238Z,3.90
2023-02-18T15:21:08.143Z,1.80
2023-02-18T15:23:38.479Z,3.80
2023-02-18T15:26:07.277Z,2.60
2023-02-18T15:28:35.258Z,1.63
2023-02-18T15:31:04.479Z,3.95
2023-02-18T15:33:31.817Z,1.92
2023-02-18T15:36:06.916Z,3.38
2023-02-18T15:38:34.284Z,3.28
2023-02-18T15:41:01.986Z,3.63
2023-02-18T15:43:30.045Z,2.75
2023-02-18T15:45:58.743Z,1.75
2023-02-18T15:48:26.128Z,3.42
2023-02-18T15:50:58.497Z,2.60
2023-02-18T15:53:31.210Z,2.75
2023-02-18T15:55:58.608Z,10.18
2023-02-18T15:58:32.661Z,2.25
2023-02-18T16:01:03.040Z,2.15
2023-02-18T16:03:37.242Z,2.75
2023-02-18T16:06:10.832Z,1.55
2023-02-18T16:08:41.027Z,1.77
2023-02-18T16:11:12.054Z,3.33
2023-02-18T16:13:47.666Z,3.40
2023-02-18T16:16:30.789Z,5.25
2023-02-18T16:18:58.221Z,4.28
2023-02-18T16:21:30.161Z,4.43
2023-02-18T16:24:00.121Z,3.50
2023-02-18T16:26:38.341Z,4.10
2023-02-18T16:29:14.701Z,26.45
2023-02-18T16:31:43.301Z,5.55
2023-02-18T16:34:10.592Z,3.42
2023-02-18T16:36:37.831Z,2.33
2023-02-18T16:39:05.545Z,3.13
2023-02-18T16:41:32.975Z,4.53
2023-02-18T16:44:01.495Z,2.55
2023-02-18T16:46:30.173Z,3.65
2023-02-18T16:48:58.538Z,2.28
2023-02-18T16:51:34.797Z,2.33
2023-02-18T16:54:02.377Z,4.30
2023-02-18T16:56:35.399Z,4.28
2023-02-18T16:59:03.078Z,2.42
2023-02-18T17:01:41.402Z,3.83
2023-02-18T17:04:12.835Z,5.15
2023-02-18T17:06:40.251Z,5.20
2023-02-18T17:09:16.860Z,3.75
2023-02-18T17:11:49.775Z,3.47
2023-02-18T17:14:18.744Z,3.33
2023-02-18T17:16:50.466Z,3.95
2023-02-18T17:19:18.002Z,4.87
2023-02-18T17:21:47.576Z,4.90
2023-02-18T17:24:17.940Z,3.05
2023-02-18T17:26:45.496Z,3.15
2023-02-18T17:29:14.368Z,5.88
2023-02-18T17:31:46.903Z,3.20
2023-02-18T17:34:41.217Z,3.80
2023-02-18T17:37:17.293Z,6.03
2023-02-18T17:39:44.561Z,4.38
2023-02-18T17:42:12.122Z,4.65
2023-02-18T17:44:40.465Z,7.72
2023-02-18T17:47:07.865Z,5.90
2023-02-18T17:49:35.069Z,4.20
2023-02-18T17:52:02.417Z,4.90
2023-02-18T17:54:30.963Z,4.00
2023-02-18T17:56:58.206Z,4.45
2023-02-18T17:59:25.433Z,3.00
2023-02-18T18:01:52.714Z,3.92
2023-02-18T18:04:20.085Z,6.18
2023-02-18T18:06:47.583Z,9.85
2023-02-18T18:09:14.892Z,5.93
2023-02-18T18:11:42.287Z,5.57
2023-02-18T18:14:15.004Z,8.68
2023-02-18T18:16:43.276Z,8.07
2023-02-18T18:19:10.624Z,11.52
2023-02-18T18:21:38.145Z,13.65
2023-02-18T18:24:05.898Z,10.43
2023-02-18T18:26:33.249Z,9.77
2023-02-18T18:29:00.533Z,7.65
2023-02-18T18:31:28.182Z,11.07
2023-02-18T18:33:56.492Z,9.10
2023-02-18T18:36:26.393Z,8.00
2023-02-18T18:38:53.662Z,9.93
2023-02-18T18:41:22.752Z,10.57
2023-02-18T18:43:50.740Z,10.85
2023-02-18T18:46:19.206Z,10.38
2023-02-18T18:48:46.586Z,6.88
2023-02-18T18:51:19.637Z,7.75
2023-02-18T18:53:47.425Z,10.68
2023-02-18T18:56:14.828Z,10.15
2023-02-18T18:58:42.207Z,20.70
2023-02-18T19:01:16.475Z,10.35
2023-02-18T19:03:45.004Z,9.20
2023-02-18T19:06:14.005Z,10.30
2023-02-18T19:08:41.395Z,8.02
2023-02-18T19:11:12.458Z,8.98
2023-02-18T19:13:40.338Z,8.63
2023-02-18T19:16:15.143Z,9.00
2023-02-18T19:18:42.646Z,10.02
2023-02-18T19:21:10.301Z,8.15
2023-02-18T19:23:38.289Z,6.93
2023-02-18T19:26:06.248Z,6.60
2023-02-18T19:28:34.063Z,7.55
2023-02-18T19:31:01.871Z,5.72
2023-02-18T19:33:29.324Z,10.02
2023-02-18T19:35:56.610Z,8.00
2023-02-18T19:38:23.886Z,7.10
2023-02-18T19:40:51.132Z,6.95
2023-02-18T19:43:18.445Z,9.25
2023-02-18T19:45:47.167Z,9.18
2023-02-18T19:48:15.485Z,7.82
2023-02-18T19:50:43.588Z,7.05
2023-02-18T19:53:11.386Z,9.35
2023-02-18T19:55:39.327Z,5.72
2023-02-18T19:58:07.441Z,5.55
2023-02-18T20:00:34.964Z,6.28
2023-02-18T20:03:02.265Z,7.45
2023-02-18T20:05:29.544Z,7.65
2023-02-18T20:07:56.820Z,5.82
2023-02-18T20:10:25.383Z,6.70
2023-02-18T20:12:53.793Z,5.07
2023-02-18T20:15:22.076Z,6.50
2023-02-18T20:17:49.954Z,5.82
2023-02-18T20:20:17.645Z,5.15
2023-02-18T20:22:45.595Z,7.57
2023-02-18T20:25:12.993Z,5.63
2023-02-18T20:27:54.460Z,6.63
2023-02-18T20:30:27.021Z,7.53
2023-02-18T20:32:54.508Z,9.32
2023-02-18T20:35:21.927Z,8.25
2023-02-18T20:37:49.382Z,7.90
2023-02-18T20:40:16.744Z,7.57
2023-02-18T20:42:44.007Z,5.03
2023-02-18T20:45:11.334Z,6.03
2023-02-18T20:47:38.695Z,5.75
2023-02-18T20:50:06.295Z,5.05
2023-02-18T20:52:34.780Z,4.75
2023-02-18T20:55:02.359Z,7.93
2023-02-18T20:57:29.651Z,5.53
2023-02-18T20:59:58.333Z,4.53
2023-02-18T21:02:25.814Z,7.30
2023-02-18T21:04:53.148Z,6.50
2023-02-18T21:07:20.448Z,5.43
2023-02-18T21:09:47.862Z,4.70
2023-02-18T21:12:15.103Z,4.57
2023-02-18T21:14:42.499Z,4.18
2023-02-18T21:17:09.795Z,4.75
2023-02-18T21:19:37.143Z,4.80
2023-02-18T21:22:04.574Z,4.13
2023-02-18T21:24:31.988Z,3.95
2023-02-18T21:26:59.448Z,4.35
2023-02-18T21:29:27.228Z,3.50
2023-02-18T21:31:54.993Z,4.78
2023-02-18T21:34:22.772Z,5.03
2023-02-18T21:36:50.059Z,3.60
2023-02-18T21:39:17.490Z,4.18
2023-02-18T21:41:44.764Z,4.57
2023-02-18T21:44:11.976Z,6.25
2023-02-18T21:46:39.745Z,3.90
2023-02-18T21:49:09.339Z,3.88
2023-02-18T21:51:57.566Z,3.53
2023-02-18T21:54:29.351Z,5.43
2023-02-18T21:56:57.590Z,5.95
2023-02-18T21:59:27.011Z,5.15
2023-02-18T22:01:55.173Z,5.72
2023-02-18T22:04:22.821Z,4.10
2023-02-18T22:06:50.058Z,4.13
2023-02-18T22:09:20.161Z,5.97
2023-02-18T22:11:47.630Z,4.70
2023-02-18T22:14:15.997Z,3.83
2023-02-18T22:16:44.158Z,4.03
2023-02-18T22:19:13.024Z,4.15
2023-02-18T22:21:41.181Z,4.18
2023-02-18T22:24:10.895Z,5.47
2023-02-18T22:26:38.296Z,6.22
2023-02-18T22:29:05.597Z,3.58
2023-02-18T22:31:33.260Z,3.60
2023-02-18T22:34:00.940Z,5.63
2023-02-18T22:36:29.322Z,4.93
2023-02-18T22:38:57.219Z,5.00
2023-02-18T22:41:25.958Z,6.45
2023-02-18T22:43:58.278Z,5.07
2023-02-18T22:46:26.530Z,4.13
2023-02-18T22:48:55.957Z,5.43
2023-02-18T22:51:26.635Z,3.50
2023-02-18T22:53:56.120Z,2.55
2023-02-18T22:56:24.981Z,2.15
2023-02-18T22:58:53.644Z,3.80
2023-02-18T23:01:31.251Z,2.25
2023-02-18T23:04:06.935Z,3.33
2023-02-18T23:06:35.709Z,3.10
2023-02-18T23:09:04.457Z,3.08
2023-02-18T23:11:31.810Z,4.00
2023-02-18T23:14:17.530Z,3.95
2023-02-18T23:17:12.840Z,3.28
2023-02-18T23:19:43.073Z,3.55
2023-02-18T23:22:12.702Z,3.67
2023-02-18T23:24:43.595Z,4.28
2023-02-18T23:27:12.891Z,4.90
2023-02-18T23:29:40.372Z,4.47
2023-02-18T23:32:08.131Z,4.15
2023-02-18T23:34:36.242Z,5.15
2023-02-18T23:37:03.704Z,3.60
2023-02-18T23:39:31.057Z,7.00
2023-02-18T23:41:58.381Z,3.40
2023-02-18T23:44:26.950Z,4.50
2023-02-18T23:46:54.285Z,3.15
2023-02-18T23:49:26.057Z,3.58
2023-02-18T23:51:55.291Z,3.10
2023-02-18T23:54:23.090Z,9.63
2023-02-18T23:56:50.390Z,5.20
2023-02-18T23:59:18.118Z,4.70
